createdAt,value
2022-08-27T00:01:49.583Z,100089.53
2022-08-27T00:04:16.929Z,100094.94
2022-08-27T00:06:47.412Z,100094.38
2022-08-27T00:09:14.854Z,100096.38
2022-08-27T00:11:43.816Z,100095.97
2022-08-27T00:14:11.433Z,100103.66
2022-08-27T00:16:39.511Z,100114.91
2022-08-27T00:19:06.902Z,100111.50
2022-08-27T00:21:34.288Z,100107.38
2022-08-27T00:24:01.558Z,100106.81
2022-08-27T00:26:29.275Z,100107.97
2022-08-27T00:28:57.387Z,100109.22
2022-08-27T00:31:27.333Z,100109.97
2022-08-27T00:33:55.638Z,100106.09
2022-08-27T00:36:22.992Z,100112.06
2022-08-27T00:38:53.794Z,100106.50
2022-08-27T00:41:21.940Z,100102.81
2022-08-27T00:43:54.046Z,100103.66
2022-08-27T00:46:44.819Z,100105.50
2022-08-27T00:49:19.629Z,100110.94
2022-08-27T00:52:00.619Z,100111.38
2022-08-27T00:54:28.805Z,100122.72
2022-08-27T00:56:57.435Z,100126.00
2022-08-27T00:59:29.357Z,100121.34
2022-08-27T01:02:16.698Z,100117.50
2022-08-27T01:04:47.583Z,100114.53
2022-08-27T01:07:14.847Z,100114.66
2022-08-27T01:09:45.153Z,100106.56
2022-08-27T01:12:14.630Z,100099.44
2022-08-27T01:14:44.563Z,100099.44
2022-08-27T01:17:13.541Z,100105.53
2022-08-27T01:19:40.476Z,100099.16
2022-08-27T01:22:30.961Z,100106.97
2022-08-27T01:25:02.768Z,100100.44
2022-08-27T01:27:34.507Z,100098.59
2022-08-27T01:30:02.713Z,100101.28
2022-08-27T01:32:33.912Z,100101.28
2022-08-27T01:35:02.736Z,100097.56
2022-08-27T01:37:29.959Z,100091.06
2022-08-27T01:40:01.800Z,100090.03
2022-08-27T01:42:40.232Z,100091.75
2022-08-27T01:45:38.637Z,100095.16
2022-08-27T01:48:08.239Z,100097.88
2022-08-27T01:50:39.050Z,100101.41
2022-08-27T01:53:12.812Z,100096.16
2022-08-27T01:55:43.456Z,100096.31
2022-08-27T01:58:16.309Z,100097.31
2022-08-27T02:00:46.916Z,100100.97
2022-08-27T02:03:14.074Z,100099.16
2022-08-27T02:05:42.265Z,100098.44
2022-08-27T02:08:13.484Z,100094.16
2022-08-27T02:10:40.794Z,100091.63
2022-08-27T02:13:08.465Z,100094.47
2022-08-27T02:15:40.500Z,100094.59
2022-08-27T02:18:08.507Z,100090.34
2022-08-27T02:20:37.108Z,100094.19
2022-08-27T02:23:05.080Z,100097.00
2022-08-27T02:25:34.164Z,100091.88
2022-08-27T02:28:02.150Z,100095.00
2022-08-27T02:30:32.227Z,100091.59
2022-08-27T02:33:01.130Z,100089.03
2022-08-27T02:35:30.300Z,100093.72
2022-08-27T02:37:58.453Z,100107.53
2022-08-27T02:40:26.466Z,100090.75
2022-08-27T02:42:54.109Z,100087.47
2022-08-27T02:45:21.820Z,100079.50
2022-08-27T02:47:48.918Z,100083.34
2022-08-27T02:50:17.449Z,100079.22
2022-08-27T02:52:46.470Z,100077.66
2022-08-27T02:55:17.253Z,100077.22
2022-08-27T02:57:45.614Z,100081.06
2022-08-27T03:00:16.417Z,100081.19
2022-08-27T03:03:10.817Z,100082.47
2022-08-27T03:05:39.796Z,100082.59
2022-08-27T03:08:07.957Z,100089.00
2022-08-27T03:10:35.373Z,100092.69
2022-08-27T03:13:02.789Z,100088.13
2022-08-27T03:15:29.838Z,100087.28
2022-08-27T03:18:15.462Z,100092.81
2022-08-27T03:20:44.700Z,100091.13
2022-08-27T03:23:14.733Z,100094.66
2022-08-27T03:25:51.508Z,100092.97
2022-08-27T03:28:23.294Z,100085.84
2022-08-27T03:30:59.025Z,100092.97
2022-08-27T03:33:29.142Z,100094.09
2022-08-27T03:35:56.378Z,100088.97
2022-08-27T03:38:25.204Z,100102.75
2022-08-27T03:40:55.108Z,100108.28
2022-08-27T03:43:23.579Z,100112.09
2022-08-27T03:46:01.851Z,100111.81
2022-08-27T03:48:32.050Z,100118.47
2022-08-27T03:50:59.800Z,100125.84
2022-08-27T03:53:28.355Z,100124.13
2022-08-27T03:55:55.581Z,100118.47
2022-08-27T03:58:22.706Z,100118.78
2022-08-27T04:00:49.715Z,100124.47
2022-08-27T04:03:19.870Z,100126.06
2022-08-27T04:05:52.885Z,100119.78
2022-08-27T04:08:20.189Z,100127.88
2022-08-27T04:10:48.015Z,100133.88
2022-08-27T04:13:15.410Z,100123.53
2022-08-27T04:15:44.705Z,100126.50
2022-08-27T04:18:12.768Z,100118.56
2022-08-27T04:20:39.786Z,100114.03
2022-08-27T04:23:07.232Z,100119.75
2022-08-27T04:25:36.575Z,100124.19
2022-08-27T04:28:03.924Z,100121.88
2022-08-27T04:30:31.557Z,100118.03
2022-08-27T04:32:59.485Z,100119.72
2022-08-27T04:35:26.856Z,100119.53
2022-08-27T04:37:54.356Z,100119.81
2022-08-27T04:40:21.409Z,100126.31
2022-08-27T04:42:52.864Z,100128.16
2022-08-27T04:45:21.330Z,100133.28
2022-08-27T04:47:48.675Z,100133.22
2022-08-27T04:50:16.187Z,100138.81
2022-08-27T04:52:43.688Z,100125.75
2022-08-27T04:55:11.810Z,100123.91
2022-08-27T04:57:46.127Z,100129.88
2022-08-27T05:00:14.083Z,100134.59
2022-08-27T05:02:41.126Z,100130.38
2022-08-27T05:05:15.451Z,100132.19
2022-08-27T05:07:43.991Z,100131.44
2022-08-27T05:10:14.192Z,100122.50
2022-08-27T05:12:44.262Z,100126.19
2022-08-27T05:15:12.018Z,100125.31
2022-08-27T05:17:39.125Z,100137.63
2022-08-27T05:20:08.434Z,100129.22
2022-08-27T05:22:39.734Z,100138.41
2022-08-27T05:25:08.082Z,100136.41
2022-08-27T05:27:34.905Z,100121.06
2022-08-27T05:30:02.411Z,100129.75
2022-08-27T05:32:29.655Z,100127.72
2022-08-27T05:34:56.806Z,100127.19
2022-08-27T05:37:24.251Z,100130.00
2022-08-27T05:39:51.307Z,100125.22
2022-08-27T05:42:19.777Z,100129.09
2022-08-27T05:44:47.090Z,100122.97
2022-08-27T05:47:14.116Z,100114.75
2022-08-27T05:49:41.340Z,100119.63
2022-08-27T05:52:12.695Z,100114.16
2022-08-27T05:54:50.089Z,100116.31
2022-08-27T05:57:17.855Z,100106.94
2022-08-27T06:00:03.658Z,100106.56
2022-08-27T06:02:31.225Z,100101.75
2022-08-27T06:04:58.555Z,100099.75
2022-08-27T06:07:25.655Z,100095.03
2022-08-27T06:09:52.938Z,100096.88
2022-08-27T06:12:28.067Z,100100.81
2022-08-27T06:14:56.647Z,100102.06
2022-08-27T06:17:23.834Z,100106.00
2022-08-27T06:19:51.157Z,100099.94
2022-08-27T06:22:18.425Z,100106.91
2022-08-27T06:24:46.715Z,100099.09
2022-08-27T06:27:22.594Z,100094.63
2022-08-27T06:29:51.497Z,100096.69
2022-08-27T06:32:18.856Z,100091.16
2022-08-27T06:34:45.807Z,100105.81
2022-08-27T06:37:13.115Z,100107.25
2022-08-27T06:39:40.606Z,100104.78
2022-08-27T06:42:11.999Z,100103.69
2022-08-27T06:44:40.405Z,100102.56
2022-08-27T06:49:58.877Z,100092.84
2022-08-27T06:52:26.519Z,100088.78
2022-08-27T06:57:37.614Z,100097.72
2022-08-27T07:00:07.672Z,100095.00
2022-08-27T07:02:35.090Z,100093.44
2022-08-27T07:05:12.061Z,100098.19
2022-08-27T07:07:44.179Z,100101.44
2022-08-27T07:10:15.392Z,100095.16
2022-08-27T07:12:51.160Z,100097.53
2022-08-27T07:15:25.898Z,100093.56
2022-08-27T07:17:58.840Z,100095.59
2022-08-27T07:20:29.569Z,100085.75
2022-08-27T07:23:03.270Z,100087.78
2022-08-27T07:25:48.159Z,100098.66
2022-08-27T07:28:16.342Z,100091.88
2022-08-27T07:30:43.659Z,100086.75
2022-08-27T07:33:11.349Z,100088.78
2022-08-27T07:35:40.012Z,100087.13
2022-08-27T07:38:13.281Z,100093.81
2022-08-27T07:43:40.911Z,100082.25
2022-08-27T07:46:08.354Z,100085.47
2022-08-27T07:48:38.001Z,100098.22
2022-08-27T07:51:05.629Z,100089.03
2022-08-27T07:53:35.431Z,100085.47
2022-08-27T07:56:04.540Z,100084.59
2022-08-27T08:01:34.132Z,100081.69
2022-08-27T08:04:01.506Z,100082.31
2022-08-27T08:06:32.639Z,100087.53
2022-08-27T08:09:13.121Z,100095.00
2022-08-27T08:11:53.320Z,100089.00
2022-08-27T08:14:23.480Z,100088.63
2022-08-27T08:16:50.945Z,100088.13
2022-08-27T08:19:20.707Z,100087.38
2022-08-27T08:21:47.817Z,100088.38
2022-08-27T08:24:18.266Z,100084.50
2022-08-27T08:26:45.484Z,100087.31
2022-08-27T08:29:18.058Z,100090.03
2022-08-27T08:31:50.411Z,100096.53
2022-08-27T08:34:19.782Z,100098.56
2022-08-27T08:36:53.990Z,100101.94
2022-08-27T08:39:22.552Z,100103.69
2022-08-27T08:41:58.371Z,100108.78
2022-08-27T08:45:07.892Z,100104.47
2022-08-27T08:47:51.744Z,100104.41
2022-08-27T08:51:04.728Z,100105.94
2022-08-27T08:53:39.746Z,100094.94
2022-08-27T08:56:29.585Z,100101.56
2022-08-27T08:59:10.357Z,100097.81
2022-08-27T09:01:38.503Z,100107.53
2022-08-27T09:04:35.739Z,100107.03
2022-08-27T09:07:31.149Z,100113.94
2022-08-27T09:10:27.029Z,100108.22
2022-08-27T09:12:59.438Z,100108.31
2022-08-27T09:15:33.913Z,100105.25
2022-08-27T09:18:14.775Z,100097.38
2022-08-27T09:20:48.331Z,100112.34
2022-08-27T09:23:28.447Z,100102.56
2022-08-27T09:25:56.537Z,100105.97
2022-08-27T09:35:13.937Z,100117.72
2022-08-27T09:38:07.576Z,100126.16
2022-08-27T09:40:52.107Z,100127.97
2022-08-27T09:43:29.398Z,100123.28
2022-08-27T09:46:21.730Z,100121.16
2022-08-27T09:52:48.848Z,100118.72
2022-08-27T09:55:38.051Z,100122.78
2022-08-27T09:58:30.615Z,100119.78
2022-08-27T10:01:21.258Z,100129.06
2022-08-27T10:03:55.360Z,100126.00
2022-08-27T10:06:33.048Z,100119.75
2022-08-27T10:12:23.263Z,100118.94
2022-08-27T10:14:55.364Z,100111.88
2022-08-27T10:17:28.963Z,100113.44
2022-08-27T10:20:17.258Z,100109.31
2022-08-27T10:27:08.661Z,100115.09
2022-08-27T10:29:52.153Z,100115.00
2022-08-27T10:32:55.236Z,100108.59
2022-08-27T10:35:28.543Z,100103.69
2022-08-27T10:38:21.835Z,100109.34
2022-08-27T10:41:02.813Z,100102.47
2022-08-27T10:44:02.347Z,100095.66
2022-08-27T10:47:11.265Z,100104.81
2022-08-27T10:49:58.932Z,100093.56
2022-08-27T10:52:53.438Z,100085.72
2022-08-27T10:55:38.918Z,100095.22
2022-08-27T11:02:12.201Z,100096.97
2022-08-27T11:04:49.672Z,100091.97
2022-08-27T11:07:43.281Z,100096.22
2022-08-27T11:10:20.954Z,100089.03
2022-08-27T11:12:51.888Z,100083.16
2022-08-27T11:15:38.261Z,100086.00
2022-08-27T11:18:41.001Z,100088.03
2022-08-27T11:22:02.462Z,100084.28
2022-08-27T11:27:43.524Z,100076.22
2022-08-27T11:30:29.909Z,100080.03
2022-08-27T11:33:02.728Z,100077.09
2022-08-27T11:36:08.823Z,100070.72
2022-08-27T11:39:02.007Z,100076.25
2022-08-27T11:41:44.746Z,100062.72
2022-08-27T11:44:32.525Z,100063.09
2022-08-27T11:47:24.911Z,100073.03
2022-08-27T11:49:56.407Z,100057.59
2022-08-27T11:53:09.197Z,100069.22
2022-08-27T11:55:40.424Z,100068.13
2022-08-27T11:58:26.543Z,100066.63
2022-08-27T12:00:54.563Z,100065.59
2022-08-27T12:03:21.951Z,100072.34
2022-08-27T12:05:52.889Z,100066.03
2022-08-27T12:08:22.995Z,100061.81
2022-08-27T12:11:19.001Z,100063.50
2022-08-27T12:14:11.187Z,100069.91
2022-08-27T12:16:48.847Z,100053.44
2022-08-27T12:19:44.276Z,100063.59
2022-08-27T12:22:26.670Z,100053.84
2022-08-27T12:25:20.298Z,100052.19
2022-08-27T12:28:06.744Z,100045.81
2022-08-27T12:30:35.503Z,100046.63
2022-08-27T12:33:27.538Z,100042.41
2022-08-27T12:36:13.740Z,100047.47
2022-08-27T12:39:05.363Z,100042.19
2022-08-27T12:41:44.278Z,100038.22
2022-08-27T12:47:18.496Z,100028.06
2022-08-27T12:49:55.883Z,100030.94
2022-08-27T12:52:33.449Z,100037.66
2022-08-27T12:55:16.858Z,100028.47
2022-08-27T12:58:00.629Z,100035.22
2022-08-27T13:00:37.970Z,100046.22
2022-08-27T13:06:29.336Z,100023.44
2022-08-27T13:09:13.451Z,100030.19
2022-08-27T13:11:50.354Z,100035.88
2022-08-27T13:14:20.677Z,100028.09
2022-08-27T13:16:59.515Z,100022.19
2022-08-27T13:19:32.131Z,100020.88
2022-08-27T13:22:01.746Z,100028.28
2022-08-27T13:24:45.803Z,100021.09
2022-08-27T13:27:13.587Z,100027.22
2022-08-27T13:29:42.710Z,100023.41
2022-08-27T13:32:14.552Z,100024.06
2022-08-27T13:34:42.504Z,100020.44
2022-08-27T13:37:30.608Z,100017.28
2022-08-27T13:40:10.105Z,100018.34
2022-08-27T13:42:48.119Z,100017.91
2022-08-27T13:45:17.960Z,100022.16
2022-08-27T13:47:48.028Z,100013.28
2022-08-27T13:50:25.824Z,100028.47
2022-08-27T13:53:20.169Z,100020.03
2022-08-27T13:55:49.793Z,100016.03
2022-08-27T13:58:27.206Z,100019.16
2022-08-27T14:00:55.867Z,100019.19
2022-08-27T14:03:35.579Z,100015.59
2022-08-27T14:06:03.167Z,100023.41
2022-08-27T14:08:36.239Z,100022.16
2022-08-27T14:11:13.080Z,100021.94
2022-08-27T14:13:45.187Z,100019.81
2022-08-27T14:16:23.938Z,100023.44
2022-08-27T14:19:02.772Z,100026.63
2022-08-27T14:21:35.713Z,100028.72
2022-08-27T14:24:03.536Z,100029.16
2022-08-27T14:26:31.789Z,100040.34
2022-08-27T14:28:59.473Z,100028.72
2022-08-27T14:31:27.673Z,100042.19
2022-08-27T14:33:56.126Z,100037.34
2022-08-27T14:36:25.268Z,100045.34
2022-08-27T14:38:52.951Z,100038.34
2022-08-27T14:41:22.191Z,100038.28
2022-08-27T14:55:21.434Z,100037.97
2022-08-27T14:57:49.758Z,100039.00
2022-08-27T15:01:02.561Z,100030.09
2022-08-27T15:03:30.541Z,100028.19
2022-08-27T15:05:57.670Z,100025.56
2022-08-27T15:08:29.079Z,100030.81
2022-08-27T15:14:11.590Z,100025.47
2022-08-27T15:16:47.009Z,100029.00
2022-08-27T15:19:20.531Z,100029.81
2022-08-27T15:21:50.536Z,100025.72
2022-08-27T15:24:26.473Z,100030.13
2022-08-27T15:27:01.842Z,100030.25
2022-08-27T15:29:29.523Z,100037.81
2022-08-27T15:31:57.445Z,100030.19
2022-08-27T15:34:24.939Z,100031.19
2022-08-27T15:36:52.090Z,100027.16
2022-08-27T15:39:19.685Z,100033.03
2022-08-27T15:42:05.164Z,100037.41
2022-08-27T15:44:33.929Z,100044.31
2022-08-27T15:47:00.982Z,100045.09
2022-08-27T15:49:28.455Z,100044.16
2022-08-27T15:51:55.989Z,100042.22
2022-08-27T15:54:27.145Z,100044.88
2022-08-27T15:56:54.475Z,100045.25
2022-08-27T15:59:21.789Z,100053.38
2022-08-27T16:01:49.009Z,100057.09
2022-08-27T16:04:16.348Z,100051.94
2022-08-27T16:06:43.759Z,100066.78
2022-08-27T16:09:11.772Z,100064.13
2022-08-27T16:11:41.154Z,100062.38
2022-08-27T16:14:11.487Z,100070.47
2022-08-27T16:16:40.419Z,100068.47
2022-08-27T16:19:12.577Z,100063.38
2022-08-27T16:21:48.246Z,100069.22
2022-08-27T16:24:21.698Z,100072.53
2022-08-27T16:26:50.579Z,100070.34
2022-08-27T16:29:17.999Z,100076.56
2022-08-27T16:31:49.877Z,100076.28
2022-08-27T16:34:21.673Z,100079.78
2022-08-27T16:36:48.812Z,100071.69
2022-08-27T16:39:15.833Z,100082.47
2022-08-27T16:41:50.534Z,100085.66
2022-08-27T16:44:18.527Z,100083.84
2022-08-27T16:46:45.981Z,100091.91
2022-08-27T16:49:31.670Z,100084.00
2022-08-27T16:52:01.486Z,100085.94
2022-08-27T16:54:29.189Z,100096.06
2022-08-27T16:56:59.266Z,100088.69
2022-08-27T16:59:26.793Z,100090.28
2022-08-27T17:02:07.436Z,100106.38
2022-08-27T17:04:41.878Z,100100.53
2022-08-27T17:07:09.725Z,100105.38
2022-08-27T17:12:37.369Z,100119.63
2022-08-27T17:15:08.460Z,100121.84
2022-08-27T17:17:38.529Z,100126.47
2022-08-27T17:20:08.559Z,100120.00
2022-08-27T17:22:35.905Z,100131.94
2022-08-27T17:25:04.057Z,100130.88
2022-08-27T17:27:31.575Z,100132.22
2022-08-27T17:29:58.712Z,100137.00
2022-08-27T17:32:26.785Z,100131.03
2022-08-27T17:34:54.324Z,100135.78
2022-08-27T17:37:21.553Z,100132.53
2022-08-27T17:39:49.176Z,100137.09
2022-08-27T17:42:17.963Z,100145.41
2022-08-27T17:44:44.920Z,100153.50
2022-08-27T17:47:12.518Z,100159.59
2022-08-27T17:49:39.898Z,100156.00
2022-08-27T17:52:13.367Z,100159.00
2022-08-27T17:54:45.999Z,100163.03
2022-08-27T17:57:25.751Z,100165.03
2022-08-27T17:59:54.579Z,100154.13
2022-08-27T18:02:38.982Z,100166.59
2022-08-27T18:05:09.036Z,100161.13
2022-08-27T18:07:39.810Z,100166.50
2022-08-27T18:10:12.646Z,100164.06
2022-08-27T18:12:41.331Z,100170.81
2022-08-27T18:15:28.071Z,100165.16
2022-08-27T18:17:59.252Z,100170.94
2022-08-27T18:20:42.734Z,100183.38
2022-08-27T18:23:14.656Z,100188.13
2022-08-27T18:25:46.140Z,100186.75
2022-08-27T18:28:16.312Z,100188.41
2022-08-27T18:30:44.889Z,100186.25
2022-08-27T18:33:13.105Z,100181.78
2022-08-27T18:35:42.266Z,100189.66
2022-08-27T18:38:10.259Z,100189.03
2022-08-27T18:40:44.243Z,100193.38
2022-08-27T18:43:15.990Z,100186.84
2022-08-27T18:45:43.479Z,100186.44
2022-08-27T18:48:16.875Z,100200.00
2022-08-27T18:50:50.708Z,100204.88
2022-08-27T18:53:21.636Z,100203.47
2022-08-27T18:55:52.287Z,100197.75
2022-08-27T18:58:32.202Z,100200.34
2022-08-27T19:01:03.425Z,100199.53
2022-08-27T19:03:36.627Z,100197.28
2022-08-27T19:06:08.697Z,100206.00
2022-08-27T19:08:39.869Z,100205.03
2022-08-27T19:11:07.466Z,100203.91
2022-08-27T19:13:34.738Z,100209.94
2022-08-27T19:16:08.509Z,100218.63
2022-08-27T19:18:38.311Z,100218.34
2022-08-27T19:21:07.434Z,100219.78
2022-08-27T19:23:36.435Z,100220.31
2022-08-27T19:26:05.553Z,100216.19
2022-08-27T19:28:39.534Z,100213.09
2022-08-27T19:31:08.495Z,100229.31
2022-08-27T19:33:36.652Z,100235.13
2022-08-27T19:36:05.509Z,100229.19
2022-08-27T19:38:34.301Z,100231.19
2022-08-27T19:41:02.882Z,100229.06
2022-08-27T19:43:30.645Z,100236.41
2022-08-27T19:45:59.800Z,100230.47
2022-08-27T19:48:26.847Z,100231.88
2022-08-27T19:50:53.977Z,100240.13
2022-08-27T19:53:21.281Z,100236.84
2022-08-27T19:55:49.137Z,100227.06
2022-08-27T19:58:18.944Z,100237.28
2022-08-27T20:00:47.166Z,100245.66
2022-08-27T20:03:15.877Z,100233.59
2022-08-27T20:05:48.360Z,100230.44
2022-08-27T20:08:16.618Z,100228.16
2022-08-27T20:10:46.589Z,100234.69
2022-08-27T20:13:13.969Z,100248.50
2022-08-27T20:15:41.573Z,100238.13
2022-08-27T20:18:10.391Z,100244.50
2022-08-27T20:20:38.115Z,100243.66
2022-08-27T20:23:06.849Z,100243.03
2022-08-27T20:25:35.408Z,100236.19
2022-08-27T20:28:12.435Z,100240.75
2022-08-27T20:30:49.473Z,100249.13
2022-08-27T20:33:16.940Z,100243.84
2022-08-27T20:35:44.719Z,100251.13
2022-08-27T20:38:12.049Z,100246.00
2022-08-27T20:40:39.253Z,100241.16
2022-08-27T20:43:06.350Z,100239.69
2022-08-27T20:45:35.748Z,100243.81
2022-08-27T20:48:04.818Z,100236.81
2022-08-27T20:50:31.801Z,100247.78
2022-08-27T20:52:59.176Z,100249.06
2022-08-27T20:55:26.300Z,100252.84
2022-08-27T20:58:11.848Z,100246.03
2022-08-27T21:00:41.713Z,100243.59
2022-08-27T21:03:11.669Z,100251.25
2022-08-27T21:05:41.518Z,100251.53
2022-08-27T21:08:08.932Z,100242.97
2022-08-27T21:10:36.042Z,100248.91
2022-08-27T21:13:07.346Z,100251.03
2022-08-27T21:15:37.148Z,100259.25
2022-08-27T21:18:04.251Z,100263.06
2022-08-27T21:20:32.419Z,100256.81
2022-08-27T21:23:00.353Z,100252.41
2022-08-27T21:25:27.822Z,100254.13
2022-08-27T21:28:00.441Z,100250.72
2022-08-27T21:30:28.405Z,100252.69
2022-08-27T21:32:56.156Z,100258.22
2022-08-27T21:35:26.640Z,100248.50
2022-08-27T21:37:59.316Z,100250.50
2022-08-27T21:40:28.414Z,100246.06
2022-08-27T21:42:58.434Z,100250.75
2022-08-27T21:45:27.120Z,100242.94
2022-08-27T21:48:18.484Z,100243.91
2022-08-27T21:50:46.275Z,100247.84
2022-08-27T21:53:13.497Z,100249.97
2022-08-27T21:55:40.514Z,100243.97
2022-08-27T21:58:10.850Z,100239.81
2022-08-27T22:00:45.952Z,100246.22
2022-08-27T22:03:20.160Z,100240.94
2022-08-27T22:05:48.977Z,100242.81
2022-08-27T22:08:20.139Z,100237.53
2022-08-27T22:10:49.706Z,100235.25
2022-08-27T22:13:17.019Z,100236.50
2022-08-27T22:15:45.664Z,100231.34
2022-08-27T22:18:13.528Z,100234.31
2022-08-27T22:20:41.432Z,100236.53
2022-08-27T22:23:11.540Z,100244.16
2022-08-27T22:25:39.371Z,100235.50
2022-08-27T22:28:06.392Z,100235.84
2022-08-27T22:30:34.239Z,100232.00
2022-08-27T22:33:02.013Z,100235.94
2022-08-27T22:35:29.249Z,100239.88
2022-08-27T22:37:56.549Z,100228.59
2022-08-27T22:40:26.506Z,100233.34
2022-08-27T22:42:56.252Z,100233.47
2022-08-27T22:45:24.471Z,100232.91
2022-08-27T22:47:51.498Z,100233.97
2022-08-27T22:50:18.728Z,100236.94
2022-08-27T22:52:46.560Z,100233.53
2022-08-27T22:55:18.851Z,100238.19
2022-08-27T22:57:51.182Z,100230.34
2022-08-27T23:00:23.657Z,100231.47
2022-08-27T23:02:50.811Z,100224.63
2022-08-27T23:05:18.579Z,100224.13
2022-08-27T23:07:47.355Z,100234.06
2022-08-27T23:10:17.465Z,100231.47
2022-08-27T23:12:46.700Z,100225.38
2022-08-27T23:15:16.671Z,100231.03
2022-08-27T23:17:44.581Z,100231.88
2022-08-27T23:20:14.510Z,100234.06
2022-08-27T23:22:42.541Z,100230.66
2022-08-27T23:25:30.136Z,100230.66
2022-08-27T23:27:59.747Z,100236.31
2022-08-27T23:30:28.198Z,100239.97
2022-08-27T23:32:55.803Z,100234.56
2022-08-27T23:35:25.181Z,100227.38
2022-08-27T23:37:53.079Z,100231.75
2022-08-27T23:40:21.378Z,100234.56
2022-08-27T23:42:49.835Z,100228.47
2022-08-27T23:45:21.495Z,100234.84
2022-08-27T23:47:48.869Z,100228.72
2022-08-27T23:50:16.619Z,100227.88
2022-08-27T23:52:44.072Z,100225.41
2022-08-27T23:55:12.041Z,100228.09
2022-08-27T23:57:39.953Z,100229.06
